Airfield :
LOGIN :

Register | Disclaimer

   EN    FR    IT 

 










Legend :    VFR   Marginal VFR   IFR   Intensive IFR   Very Intensive IFR
Visi :
Ceiling :
>= 8 km
>= 3000ft
5 to 8 km
1000 to 3000 ft
1500m to 5 km
500 to 1000 ft
800 to 1500m
200 to 500 ft
< 800m
< 200 ft
Symbols :   Thunderstorms  Fog  Heavy snow  Heavy precipitations  Wind > 20 kt
SIGMETs :     Misc.  Thunderstorms  Icing  Turbulence  Mountain Waves  Volcanic Ashes







- Airport Elevation : 1079 ft


ETIK - Illesheim Air Base

CURRENT METAR :
  • 200756Z AUTO 32006KT 9999 SCT065 SCT075 BKN100 BKN150 BKN180 15/15 A2963 RMK AO2 RAB11E20 SLP032 P0000 T01490146 $

EXPIRED METARs :
  • 200720Z AUTO 31006KT 9999 SCT090 SCT180 15/15 A2962 RMK AO2 RAB11E20 SLP028 $
  • 200711Z AUTO 31006KT 9999 -RA SCT085 14/14 A2962 RMK AO2 RAB11 SLP028 $
  • 200656Z AUTO 31005KT 9999 FEW075 SCT090 14/14 A2962 RMK AO2 SLP028 T01420142 $
  • 200556Z AUTO 28003KT 9999 FEW060 SCT090 SCT120 13/13 A2961 RMK AO2 SLP026 T01320132 10132 20102 55001 $

TAF TAF ETIK
Valid from the 20 at 06:00 until the 21 at 12:00 UTC


200610Z 2006/2112 VRB06KT 9999 FEW030 BKN070 620804 QNH2956INS
BECMG 2010/2011 34009KT 8000 -SHRA VCTS BKN020CB 620804 QNH2956INS
TEMPO 2014/2018 5000 -TSRA BKN015CB
BECMG 2019/2020 31006KT 8000 -SHRA OVC009 620804 QNH2958INS
TEMPO 2021/2105 OVC005
BECMG 2105/2106 31012G20KT 8000 -SHRA OVC009 620809 QNH2963INS
TEMPO 2106/2112 31015G25KT OVC005 TX19/2014Z TN11/2104Z
No reported NOTAMs for that airfield.



MET'MAP, your aeronautical weather chart ! - Copyright ORBIFLY December 2007 - Disclaimer

ORBIFLY MET'MAP TEAM :

Programming & Development : Alexandra Zaïnal
Concept & Development : Baudouin d'Aumeries
Co-Development & Prog : Marc-Olivier Méhu
Technical & hardware support : Manuel Goepfert

Contact : metmap@orbifly.com




SOURCES & CREDITS :

   NOAA